sensor_id;sensor_type;location;lat;lon;timestamp;temperature;humidity
15821;DHT22;8011;51.650;7.240;2022-10-16T03:02:11;13.30;99.90
15821;DHT22;8011;51.650;7.240;2022-10-16T03:04:38;13.30;99.90
15821;DHT22;8011;51.650;7.240;2022-10-16T03:07:04;13.30;99.90
15821;DHT22;8011;51.650;7.240;2022-10-16T03:09:29;13.30;99.90
15821;DHT22;8011;51.650;7.240;2022-10-16T03:11:55;13.40;99.90
15821;DHT22;8011;51.650;7.240;2022-10-16T03:14:21;13.30;99.90
15821;DHT22;8011;51.650;7.240;2022-10-16T03:16:46;13.30;99.90
15821;DHT22;8011;51.650;7.240;2022-10-16T03:19:16;13.30;99.90
15821;DHT22;8011;51.650;7.240;2022-10-16T03:21:42;13.30;99.90
15821;DHT22;8011;51.650;7.240;2022-10-16T03:24:07;13.30;99.90
15821;DHT22;8011;51.650;7.240;2022-10-16T03:26:33;13.30;99.90
15821;DHT22;8011;51.650;7.240;2022-10-16T03:28:58;13.30;99.90
15821;DHT22;8011;51.650;7.240;2022-10-16T03:31:24;13.30;99.90
15821;DHT22;8011;51.650;7.240;2022-10-16T03:33:50;13.30;99.90
15821;DHT22;8011;51.650;7.240;2022-10-16T03:36:15;13.30;99.90
15821;DHT22;8011;51.650;7.240;2022-10-16T03:38:41;13.30;99.90
15821;DHT22;8011;51.650;7.240;2022-10-16T03:41:07;13.30;99.90
15821;DHT22;8011;51.650;7.240;2022-10-16T03:43:33;13.30;99.90
15821;DHT22;8011;51.650;7.240;2022-10-16T03:45:59;13.30;99.90
15821;DHT22;8011;51.650;7.240;2022-10-16T03:48:24;13.30;99.90
15821;DHT22;8011;51.650;7.240;2022-10-16T03:50:50;13.30;99.90
15821;DHT22;8011;51.650;7.240;2022-10-16T03:53:17;13.30;99.90
15821;DHT22;8011;51.650;7.240;2022-10-16T03:55:43;13.30;99.90
15821;DHT22;8011;51.650;7.240;2022-10-16T03:58:08;13.30;99.90
15821;DHT22;8011;51.650;7.240;2022-10-16T04:00:34;13.30;99.90
15821;DHT22;8011;51.650;7.240;2022-10-16T04:03:00;13.30;99.90
15821;DHT22;8011;51.650;7.240;2022-10-16T04:05:26;13.30;99.90
15821;DHT22;8011;51.650;7.240;2022-10-16T04:07:52;13.30;99.90
15821;DHT22;8011;51.650;7.240;2022-10-16T04:10:18;13.30;99.90
15821;DHT22;8011;51.650;7.240;2022-10-16T04:12:44;13.20;99.90
15821;DHT22;8011;51.650;7.240;2022-10-16T04:15:10;13.20;99.90
15821;DHT22;8011;51.650;7.240;2022-10-16T04:17:36;13.30;99.90
15821;DHT22;8011;51.650;7.240;2022-10-16T04:20:02;13.30;99.90
15821;DHT22;8011;51.650;7.240;2022-10-16T04:22:28;13.30;99.90
15821;DHT22;8011;51.650;7.240;2022-10-16T04:24:53;13.30;99.90
15821;DHT22;8011;51.650;7.240;2022-10-16T04:27:19;13.30;99.90
15821;DHT22;8011;51.650;7.240;2022-10-16T04:29:45;13.30;99.90
15821;DHT22;8011;51.650;7.240;2022-10-16T04:32:10;13.30;99.90
15821;DHT22;8011;51.650;7.240;2022-10-16T04:34:36;13.30;99.90
15821;DHT22;8011;51.650;7.240;2022-10-16T04:37:04;13.30;99.90
15821;DHT22;8011;51.650;7.240;2022-10-16T04:39:30;13.30;99.90
15821;DHT22;8011;51.650;7.240;2022-10-16T04:41:56;13.30;99.90
15821;DHT22;8011;51.650;7.240;2022-10-16T04:44:21;13.30;99.90
15821;DHT22;8011;51.650;7.240;2022-10-16T04:46:49;13.30;99.90
15821;DHT22;8011;51.650;7.240;2022-10-16T04:49:15;13.30;99.90
15821;DHT22;8011;51.650;7.240;2022-10-16T04:51:40;13.30;99.90
15821;DHT22;8011;51.650;7.240;2022-10-16T04:54:06;13.30;99.90
15821;DHT22;8011;51.650;7.240;2022-10-16T04:56:32;13.30;99.90
15821;DHT22;8011;51.650;7.240;2022-10-16T04:58:57;13.30;99.90
15821;DHT22;8011;51.650;7.240;2022-10-16T05:01:23;13.30;99.90
15821;DHT22;8011;51.650;7.240;2022-10-16T05:03:49;13.30;99.90
15821;DHT22;8011;51.650;7.240;2022-10-16T05:06:14;13.30;99.90
15821;DHT22;8011;51.650;7.240;2022-10-16T05:08:40;13.30;99.90
15821;DHT22;8011;51.650;7.240;2022-10-16T05:11:05;13.30;99.90
15821;DHT22;8011;51.650;7.240;2022-10-16T05:13:31;13.30;99.90
15821;DHT22;8011;51.650;7.240;2022-10-16T05:15:57;13.30;99.90
15821;DHT22;8011;51.650;7.240;2022-10-16T05:18:22;13.40;99.90
15821;DHT22;8011;51.650;7.240;2022-10-16T05:20:48;13.40;99.90
15821;DHT22;8011;51.650;7.240;2022-10-16T05:23:13;13.40;99.90
15821;DHT22;8011;51.650;7.240;2022-10-16T05:25:39;13.40;99.90
15821;DHT22;8011;51.650;7.240;2022-10-16T05:28:05;13.40;99.90
15821;DHT22;8011;51.650;7.240;2022-10-16T05:30:30;13.40;99.90
15821;DHT22;8011;51.650;7.240;2022-10-16T05:32:56;13.40;99.90
15821;DHT22;8011;51.650;7.240;2022-10-16T05:35:22;13.40;99.90
15821;DHT22;8011;51.650;7.240;2022-10-16T05:37:48;13.40;99.90
15821;DHT22;8011;51.650;7.240;2022-10-16T05:40:14;13.40;99.90
15821;DHT22;8011;51.650;7.240;2022-10-16T05:42:40;13.40;99.90
15821;DHT22;8011;51.650;7.240;2022-10-16T05:45:07;13.40;99.90
15821;DHT22;8011;51.650;7.240;2022-10-16T05:47:34;13.50;99.90
15821;DHT22;8011;51.650;7.240;2022-10-16T05:50:00;13.40;99.90
15821;DHT22;8011;51.650;7.240;2022-10-16T05:52:27;13.50;99.90
15821;DHT22;8011;51.650;7.240;2022-10-16T05:54:52;13.40;99.90
15821;DHT22;8011;51.650;7.240;2022-10-16T05:57:18;13.40;99.90
15821;DHT22;8011;51.650;7.240;2022-10-16T05:59:44;13.50;99.90
15821;DHT22;8011;51.650;7.240;2022-10-16T06:02:13;13.40;99.90
15821;DHT22;8011;51.650;7.240;2022-10-16T06:04:39;13.50;99.90
15821;DHT22;8011;51.650;7.240;2022-10-16T06:07:04;13.50;99.90
15821;DHT22;8011;51.650;7.240;2022-10-16T06:09:30;13.50;99.90
15821;DHT22;8011;51.650;7.240;2022-10-16T06:11:56;13.50;99.90
15821;DHT22;8011;51.650;7.240;2022-10-16T06:14:22;13.40;99.90
15821;DHT22;8011;51.650;7.240;2022-10-16T06:16:47;13.50;99.90
15821;DHT22;8011;51.650;7.240;2022-10-16T06:19:13;13.40;99.90
15821;DHT22;8011;51.650;7.240;2022-10-16T06:21:39;13.40;99.90
15821;DHT22;8011;51.650;7.240;2022-10-16T06:24:04;13.50;99.90
15821;DHT22;8011;51.650;7.240;2022-10-16T06:26:30;13.50;99.90
15821;DHT22;8011;51.650;7.240;2022-10-16T06:28:58;13.50;99.90
15821;DHT22;8011;51.650;7.240;2022-10-16T06:31:24;13.50;99.90
15821;DHT22;8011;51.650;7.240;2022-10-16T06:33:55;13.50;99.90
15821;DHT22;8011;51.650;7.240;2022-10-16T06:36:22;13.50;99.90
15821;DHT22;8011;51.650;7.240;2022-10-16T06:38:48;13.50;99.90
15821;DHT22;8011;51.650;7.240;2022-10-16T06:41:16;13.50;99.90
15821;DHT22;8011;51.650;7.240;2022-10-16T06:43:42;13.50;99.90
15821;DHT22;8011;51.650;7.240;2022-10-16T06:46:11;13.50;99.90
15821;DHT22;8011;51.650;7.240;2022-10-16T06:48:37;13.50;99.90
15821;DHT22;8011;51.650;7.240;2022-10-16T06:51:04;13.50;99.90
15821;DHT22;8011;51.650;7.240;2022-10-16T06:53:32;13.50;99.90
15821;DHT22;8011;51.650;7.240;2022-10-16T06:56:10;13.50;99.90
15821;DHT22;8011;51.650;7.240;2022-10-16T06:58:35;13.60;99.90
15821;DHT22;8011;51.650;7.240;2022-10-16T07:01:01;13.60;99.90
15821;DHT22;8011;51.650;7.240;2022-10-16T07:03:27;13.60;99.90
15821;DHT22;8011;51.650;7.240;2022-10-16T07:05:52;13.60;99.90
15821;DHT22;8011;51.650;7.240;2022-10-16T07:08:18;13.60;99.90
15821;DHT22;8011;51.650;7.240;2022-10-16T07:10:44;13.60;99.90
15821;DHT22;8011;51.650;7.240;2022-10-16T07:13:09;13.60;99.90
15821;DHT22;8011;51.650;7.240;2022-10-16T07:15:38;13.60;99.90
15821;DHT22;8011;51.650;7.240;2022-10-16T07:18:04;13.60;99.90
15821;DHT22;8011;51.650;7.240;2022-10-16T07:20:29;13.60;99.90
15821;DHT22;8011;51.650;7.240;2022-10-16T07:22:55;13.60;99.90
15821;DHT22;8011;51.650;7.240;2022-10-16T07:25:21;13.60;99.90
15821;DHT22;8011;51.650;7.240;2022-10-16T07:27:46;13.60;99.90
15821;DHT22;8011;51.650;7.240;2022-10-16T07:30:12;13.60;99.90
15821;DHT22;8011;51.650;7.240;2022-10-16T07:32:38;13.60;99.90
15821;DHT22;8011;51.650;7.240;2022-10-16T07:35:04;13.70;99.90
15821;DHT22;8011;51.650;7.240;2022-10-16T07:37:30;13.60;99.90
15821;DHT22;8011;51.650;7.240;2022-10-16T07:39:56;13.60;99.90
15821;DHT22;8011;51.650;7.240;2022-10-16T07:42:21;13.70;99.90
15821;DHT22;8011;51.650;7.240;2022-10-16T07:44:47;13.70;99.90
15821;DHT22;8011;51.650;7.240;2022-10-16T07:47:13;13.70;99.90
15821;DHT22;8011;51.650;7.240;2022-10-16T07:49:39;13.80;99.90
15821;DHT22;8011;51.650;7.240;2022-10-16T07:52:04;13.80;99.90
15821;DHT22;8011;51.650;7.240;2022-10-16T07:54:30;13.90;99.90
15821;DHT22;8011;51.650;7.240;2022-10-16T07:56:55;13.90;99.90
15821;DHT22;8011;51.650;7.240;2022-10-16T07:59:21;13.90;99.90
15821;DHT22;8011;51.650;7.240;2022-10-16T08:01:49;14.00;99.90
15821;DHT22;8011;51.650;7.240;2022-10-16T08:04:14;14.10;99.90
15821;DHT22;8011;51.650;7.240;2022-10-16T08:06:41;14.10;99.90
15821;DHT22;8011;51.650;7.240;2022-10-16T08:09:07;14.20;99.90
15821;DHT22;8011;51.650;7.240;2022-10-16T08:11:36;14.20;99.90
15821;DHT22;8011;51.650;7.240;2022-10-16T08:14:02;14.30;99.90
15821;DHT22;8011;51.650;7.240;2022-10-16T08:16:27;14.30;99.90
15821;DHT22;8011;51.650;7.240;2022-10-16T08:18:53;14.40;99.90
15821;DHT22;8011;51.650;7.240;2022-10-16T08:21:21;14.50;99.90
15821;DHT22;8011;51.650;7.240;2022-10-16T08:23:49;14.50;99.90
15821;DHT22;8011;51.650;7.240;2022-10-16T08:26:15;14.60;99.90
15821;DHT22;8011;51.650;7.240;2022-10-16T08:28:40;14.60;99.90
15821;DHT22;8011;51.650;7.240;2022-10-16T08:31:12;14.60;99.90
15821;DHT22;8011;51.650;7.240;2022-10-16T08:33:39;14.70;99.90
15821;DHT22;8011;51.650;7.240;2022-10-16T08:36:06;14.70;99.90
15821;DHT22;8011;51.650;7.240;2022-10-16T08:38:32;14.80;99.90
15821;DHT22;8011;51.650;7.240;2022-10-16T08:43:55;14.90;99.90
15821;DHT22;8011;51.650;7.240;2022-10-16T08:46:38;14.90;99.90
15821;DHT22;8011;51.650;7.240;2022-10-16T08:49:11;15.00;99.90
15821;DHT22;8011;51.650;7.240;2022-10-16T08:51:38;15.00;99.90
15821;DHT22;8011;51.650;7.240;2022-10-16T08:54:08;15.10;99.90
15821;DHT22;8011;51.650;7.240;2022-10-16T08:56:35;15.10;99.90
15821;DHT22;8011;51.650;7.240;2022-10-16T08:59:01;15.10;99.90
15821;DHT22;8011;51.650;7.240;2022-10-16T09:01:42;15.20;99.90
15821;DHT22;8011;51.650;7.240;2022-10-16T09:07:15;15.30;99.90
15821;DHT22;8011;51.650;7.240;2022-10-16T09:09:53;15.30;99.90
15821;DHT22;8011;51.650;7.240;2022-10-16T09:12:43;15.30;99.90
15821;DHT22;8011;51.650;7.240;2022-10-16T09:20:49;15.50;99.90
15821;DHT22;8011;51.650;7.240;2022-10-16T09:23:26;15.50;99.90
15821;DHT22;8011;51.650;7.240;2022-10-16T09:25:53;15.50;99.90
15821;DHT22;8011;51.650;7.240;2022-10-16T09:28:20;15.60;99.90
15821;DHT22;8011;51.650;7.240;2022-10-16T09:30:47;15.60;99.90
15821;DHT22;8011;51.650;7.240;2022-10-16T09:33:16;15.60;99.90
15821;DHT22;8011;51.650;7.240;2022-10-16T09:35:47;15.60;99.90
15821;DHT22;8011;51.650;7.240;2022-10-16T09:38:28;15.70;99.90
15821;DHT22;8011;51.650;7.240;2022-10-16T09:40:56;15.70;99.90
15821;DHT22;8011;51.650;7.240;2022-10-16T09:43:32;15.80;99.90
15821;DHT22;8011;51.650;7.240;2022-10-16T09:49:05;15.80;99.90
15821;DHT22;8011;51.650;7.240;2022-10-16T09:51:31;15.90;99.90
15821;DHT22;8011;51.650;7.240;2022-10-16T09:56:34;15.90;99.90
15821;DHT22;8011;51.650;7.240;2022-10-16T09:59:17;16.00;99.90
15821;DHT22;8011;51.650;7.240;2022-10-16T10:01:49;16.10;99.90
15821;DHT22;8011;51.650;7.240;2022-10-16T10:04:17;16.10;99.90
15821;DHT22;8011;51.650;7.240;2022-10-16T10:14:29;16.10;99.90
15821;DHT22;8011;51.650;7.240;2022-10-16T10:19:50;16.20;99.90
15821;DHT22;8011;51.650;7.240;2022-10-16T10:22:24;16.20;99.90
15821;DHT22;8011;51.650;7.240;2022-10-16T10:33:31;16.50;99.90
15821;DHT22;8011;51.650;7.240;2022-10-16T10:46:34;16.80;99.90
15821;DHT22;8011;51.650;7.240;2022-10-16T10:55:09;17.00;99.90
15821;DHT22;8011;51.650;7.240;2022-10-16T11:00:30;17.00;99.90
15821;DHT22;8011;51.650;7.240;2022-10-16T11:06:04;17.10;99.90
15821;DHT22;8011;51.650;7.240;2022-10-16T11:08:33;17.10;99.90
15821;DHT22;8011;51.650;7.240;2022-10-16T11:11:14;17.10;99.90
15821;DHT22;8011;51.650;7.240;2022-10-16T11:16:58;17.20;99.90
15821;DHT22;8011;51.650;7.240;2022-10-16T11:23:40;17.30;99.90
15821;DHT22;8011;51.650;7.240;2022-10-16T11:25:33;17.40;99.90
15821;DHT22;8011;51.650;7.240;2022-10-16T11:30:50;17.50;99.90
15821;DHT22;8011;51.650;7.240;2022-10-16T11:41:42;17.70;99.90
15821;DHT22;8011;51.650;7.240;2022-10-16T11:47:13;17.60;99.90
15821;DHT22;8011;51.650;7.240;2022-10-16T11:49:41;17.60;99.90
15821;DHT22;8011;51.650;7.240;2022-10-16T11:52:33;17.60;99.90
15821;DHT22;8011;51.650;7.240;2022-10-16T11:55:12;17.60;99.90
15821;DHT22;8011;51.650;7.240;2022-10-16T11:57:57;17.60;99.90
15821;DHT22;8011;51.650;7.240;2022-10-16T12:00:28;17.60;99.90
15821;DHT22;8011;51.650;7.240;2022-10-16T12:06:01;17.50;99.90
15821;DHT22;8011;51.650;7.240;2022-10-16T12:08:28;17.50;99.90
15821;DHT22;8011;51.650;7.240;2022-10-16T12:11:09;17.50;99.90
15821;DHT22;8011;51.650;7.240;2022-10-16T12:13:45;17.50;99.90
15821;DHT22;8011;51.650;7.240;2022-10-16T12:18:44;17.50;99.90
15821;DHT22;8011;51.650;7.240;2022-10-16T12:21:12;17.50;99.90
15821;DHT22;8011;51.650;7.240;2022-10-16T12:23:54;17.50;99.90
15821;DHT22;8011;51.650;7.240;2022-10-16T12:26:33;17.60;99.90
15821;DHT22;8011;51.650;7.240;2022-10-16T12:29:38;17.60;99.90
15821;DHT22;8011;51.650;7.240;2022-10-16T12:32:24;17.50;99.90
15821;DHT22;8011;51.650;7.240;2022-10-16T12:34:51;17.50;99.90
15821;DHT22;8011;51.650;7.240;2022-10-16T12:37:34;17.50;99.90
15821;DHT22;8011;51.650;7.240;2022-10-16T12:40:31;17.50;99.90
15821;DHT22;8011;51.650;7.240;2022-10-16T12:42:57;17.60;99.90
15821;DHT22;8011;51.650;7.240;2022-10-16T12:45:31;17.60;99.90
15821;DHT22;8011;51.650;7.240;2022-10-16T12:48:02;17.60;99.90
15821;DHT22;8011;51.650;7.240;2022-10-16T12:50:38;17.60;99.90
15821;DHT22;8011;51.650;7.240;2022-10-16T12:53:26;17.60;99.90
15821;DHT22;8011;51.650;7.240;2022-10-16T13:04:32;17.60;99.90
15821;DHT22;8011;51.650;7.240;2022-10-16T13:07:32;17.60;99.90
15821;DHT22;8011;51.650;7.240;2022-10-16T13:21:26;17.80;99.90
15821;DHT22;8011;51.650;7.240;2022-10-16T13:28:51;17.80;99.90
15821;DHT22;8011;51.650;7.240;2022-10-16T13:31:22;17.80;99.90
15821;DHT22;8011;51.650;7.240;2022-10-16T13:33:59;17.90;99.90
15821;DHT22;8011;51.650;7.240;2022-10-16T13:41:35;17.90;99.90
15821;DHT22;8011;51.650;7.240;2022-10-16T13:44:01;18.00;99.90
15821;DHT22;8011;51.650;7.240;2022-10-16T13:46:26;18.00;99.90
15821;DHT22;8011;51.650;7.240;2022-10-16T13:49:00;18.00;99.90
15821;DHT22;8011;51.650;7.240;2022-10-16T13:51:27;18.10;99.90
15821;DHT22;8011;51.650;7.240;2022-10-16T13:53:55;18.10;99.90
15821;DHT22;8011;51.650;7.240;2022-10-16T13:56:24;18.10;99.90
15821;DHT22;8011;51.650;7.240;2022-10-16T13:59:02;18.00;99.90
15821;DHT22;8011;51.650;7.240;2022-10-16T14:01:30;18.00;99.90
15821;DHT22;8011;51.650;7.240;2022-10-16T14:04:15;18.00;99.90
15821;DHT22;8011;51.650;7.240;2022-10-16T14:06:44;18.00;99.90
15821;DHT22;8011;51.650;7.240;2022-10-16T14:09:29;17.90;99.90
15821;DHT22;8011;51.650;7.240;2022-10-16T14:12:02;17.90;99.90
15821;DHT22;8011;51.650;7.240;2022-10-16T14:14:35;18.00;99.90
15821;DHT22;8011;51.650;7.240;2022-10-16T14:17:05;18.00;99.90
15821;DHT22;8011;51.650;7.240;2022-10-16T14:19:31;18.00;99.90
15821;DHT22;8011;51.650;7.240;2022-10-16T14:21:58;18.00;99.90
15821;DHT22;8011;51.650;7.240;2022-10-16T14:24:31;18.10;99.90
15821;DHT22;8011;51.650;7.240;2022-10-16T14:26:57;18.00;99.90
15821;DHT22;8011;51.650;7.240;2022-10-16T14:29:25;18.10;99.90
15821;DHT22;8011;51.650;7.240;2022-10-16T14:32:01;18.10;99.90
15821;DHT22;8011;51.650;7.240;2022-10-16T14:37:01;18.10;99.90
15821;DHT22;8011;51.650;7.240;2022-10-16T14:39:33;18.10;99.90
15821;DHT22;8011;51.650;7.240;2022-10-16T14:41:59;18.10;99.90
15821;DHT22;8011;51.650;7.240;2022-10-16T14:44:31;18.00;99.90
15821;DHT22;8011;51.650;7.240;2022-10-16T14:46:57;18.00;99.90
15821;DHT22;8011;51.650;7.240;2022-10-16T14:49:25;18.00;99.90
15821;DHT22;8011;51.650;7.240;2022-10-16T14:51:51;17.90;99.90
15821;DHT22;8011;51.650;7.240;2022-10-16T14:54:18;17.90;99.90
15821;DHT22;8011;51.650;7.240;2022-10-16T14:56:56;17.90;99.90
15821;DHT22;8011;51.650;7.240;2022-10-16T14:59:33;17.90;99.90
15821;DHT22;8011;51.650;7.240;2022-10-16T15:02:09;17.90;99.90
15821;DHT22;8011;51.650;7.240;2022-10-16T15:04:41;17.90;99.90
15821;DHT22;8011;51.650;7.240;2022-10-16T15:07:07;17.90;99.90
15821;DHT22;8011;51.650;7.240;2022-10-16T15:09:33;17.90;99.90
15821;DHT22;8011;51.650;7.240;2022-10-16T15:11:59;18.00;99.90
15821;DHT22;8011;51.650;7.240;2022-10-16T15:14:24;18.00;99.90
15821;DHT22;8011;51.650;7.240;2022-10-16T15:16:50;17.90;99.90
15821;DHT22;8011;51.650;7.240;2022-10-16T15:19:19;17.90;99.90
15821;DHT22;8011;51.650;7.240;2022-10-16T15:21:45;17.90;99.90
15821;DHT22;8011;51.650;7.240;2022-10-16T15:24:12;17.90;99.90
15821;DHT22;8011;51.650;7.240;2022-10-16T15:26:38;17.90;99.90
15821;DHT22;8011;51.650;7.240;2022-10-16T15:29:04;17.90;99.90
15821;DHT22;8011;51.650;7.240;2022-10-16T15:31:30;17.90;99.90
15821;DHT22;8011;51.650;7.240;2022-10-16T15:33:56;17.90;99.90
15821;DHT22;8011;51.650;7.240;2022-10-16T15:36:35;17.90;99.90
15821;DHT22;8011;51.650;7.240;2022-10-16T15:39:03;17.90;99.90
15821;DHT22;8011;51.650;7.240;2022-10-16T15:41:29;17.90;99.90
15821;DHT22;8011;51.650;7.240;2022-10-16T15:43:54;17.90;99.90
15821;DHT22;8011;51.650;7.240;2022-10-16T15:46:22;17.90;99.90
15821;DHT22;8011;51.650;7.240;2022-10-16T15:48:49;17.90;99.90
15821;DHT22;8011;51.650;7.240;2022-10-16T15:51:15;17.90;99.90
15821;DHT22;8011;51.650;7.240;2022-10-16T15:53:41;18.00;99.90
15821;DHT22;8011;51.650;7.240;2022-10-16T15:56:07;17.90;99.90
15821;DHT22;8011;51.650;7.240;2022-10-16T15:58:34;17.90;99.90
15821;DHT22;8011;51.650;7.240;2022-10-16T16:01:02;17.90;99.90
15821;DHT22;8011;51.650;7.240;2022-10-16T16:03:29;17.90;99.90
15821;DHT22;8011;51.650;7.240;2022-10-16T16:05:56;17.90;99.90
15821;DHT22;8011;51.650;7.240;2022-10-16T16:08:21;17.90;99.90
15821;DHT22;8011;51.650;7.240;2022-10-16T16:11:01;17.80;99.90
15821;DHT22;8011;51.650;7.240;2022-10-16T16:13:27;17.80;99.90
15821;DHT22;8011;51.650;7.240;2022-10-16T16:15:53;17.90;99.90
15821;DHT22;8011;51.650;7.240;2022-10-16T16:18:19;17.90;99.90
15821;DHT22;8011;51.650;7.240;2022-10-16T16:20:44;17.80;99.90
15821;DHT22;8011;51.650;7.240;2022-10-16T16:23:10;17.90;99.90
15821;DHT22;8011;51.650;7.240;2022-10-16T16:25:36;17.80;99.90
15821;DHT22;8011;51.650;7.240;2022-10-16T16:28:01;17.80;99.90
15821;DHT22;8011;51.650;7.240;2022-10-16T16:30:27;17.70;99.90
15821;DHT22;8011;51.650;7.240;2022-10-16T16:32:53;17.70;99.90
15821;DHT22;8011;51.650;7.240;2022-10-16T16:35:18;17.70;99.90
15821;DHT22;8011;51.650;7.240;2022-10-16T16:37:44;17.60;99.90
15821;DHT22;8011;51.650;7.240;2022-10-16T16:40:11;17.60;99.90
15821;DHT22;8011;51.650;7.240;2022-10-16T16:42:37;17.40;99.90
15821;DHT22;8011;51.650;7.240;2022-10-16T16:45:02;17.40;99.90
15821;DHT22;8011;51.650;7.240;2022-10-16T16:47:28;17.40;99.90
15821;DHT22;8011;51.650;7.240;2022-10-16T16:49:54;17.40;99.90
15821;DHT22;8011;51.650;7.240;2022-10-16T16:52:19;17.40;99.90
15821;DHT22;8011;51.650;7.240;2022-10-16T16:54:45;17.40;99.90
15821;DHT22;8011;51.650;7.240;2022-10-16T16:57:20;17.30;99.90
15821;DHT22;8011;51.650;7.240;2022-10-16T16:59:46;17.30;99.90
15821;DHT22;8011;51.650;7.240;2022-10-16T17:02:11;17.20;99.90
15821;DHT22;8011;51.650;7.240;2022-10-16T17:04:37;17.30;99.90
15821;DHT22;8011;51.650;7.240;2022-10-16T17:07:03;17.20;99.90
15821;DHT22;8011;51.650;7.240;2022-10-16T17:09:28;17.20;99.90
15821;DHT22;8011;51.650;7.240;2022-10-16T17:11:54;17.10;99.90
15821;DHT22;8011;51.650;7.240;2022-10-16T17:14:20;17.10;99.90
15821;DHT22;8011;51.650;7.240;2022-10-16T17:16:45;17.10;99.90
15821;DHT22;8011;51.650;7.240;2022-10-16T17:19:18;17.00;99.90
15821;DHT22;8011;51.650;7.240;2022-10-16T17:21:44;16.90;99.90
15821;DHT22;8011;51.650;7.240;2022-10-16T17:24:10;16.90;99.90
15821;DHT22;8011;51.650;7.240;2022-10-16T17:26:36;17.00;99.90
15821;DHT22;8011;51.650;7.240;2022-10-16T17:29:06;16.90;99.90
15821;DHT22;8011;51.650;7.240;2022-10-16T17:31:34;16.80;99.90
15821;DHT22;8011;51.650;7.240;2022-10-16T17:34:01;16.80;99.90
15821;DHT22;8011;51.650;7.240;2022-10-16T17:36:30;16.70;99.90
15821;DHT22;8011;51.650;7.240;2022-10-16T17:38:58;16.70;99.90
15821;DHT22;8011;51.650;7.240;2022-10-16T17:41:26;16.70;99.90
15821;DHT22;8011;51.650;7.240;2022-10-16T17:43:51;16.70;99.90
15821;DHT22;8011;51.650;7.240;2022-10-16T17:46:20;16.70;99.90
15821;DHT22;8011;51.650;7.240;2022-10-16T17:48:48;16.70;99.90
15821;DHT22;8011;51.650;7.240;2022-10-16T17:51:17;16.80;99.90
15821;DHT22;8011;51.650;7.240;2022-10-16T17:53:42;16.70;99.90
15821;DHT22;8011;51.650;7.240;2022-10-16T17:56:13;16.70;99.90
15821;DHT22;8011;51.650;7.240;2022-10-16T17:58:40;16.70;99.90
15821;DHT22;8011;51.650;7.240;2022-10-16T18:03:54;16.70;99.90
15821;DHT22;8011;51.650;7.240;2022-10-16T18:06:20;16.60;99.90
15821;DHT22;8011;51.650;7.240;2022-10-16T18:08:46;16.60;99.90
15821;DHT22;8011;51.650;7.240;2022-10-16T18:11:11;16.60;99.90
15821;DHT22;8011;51.650;7.240;2022-10-16T18:13:37;16.60;99.90
15821;DHT22;8011;51.650;7.240;2022-10-16T18:16:12;16.60;99.90
15821;DHT22;8011;51.650;7.240;2022-10-16T18:18:40;16.60;99.90
15821;DHT22;8011;51.650;7.240;2022-10-16T18:21:08;16.60;99.90
15821;DHT22;8011;51.650;7.240;2022-10-16T18:23:36;16.60;99.90
15821;DHT22;8011;51.650;7.240;2022-10-16T18:26:03;16.60;99.90
15821;DHT22;8011;51.650;7.240;2022-10-16T18:28:29;16.50;99.90
15821;DHT22;8011;51.650;7.240;2022-10-16T18:33:24;16.50;99.90
15821;DHT22;8011;51.650;7.240;2022-10-16T18:35:50;16.50;99.90
15821;DHT22;8011;51.650;7.240;2022-10-16T18:38:16;16.40;99.90
15821;DHT22;8011;51.650;7.240;2022-10-16T18:40:42;16.40;99.90
15821;DHT22;8011;51.650;7.240;2022-10-16T18:43:08;16.40;99.90
15821;DHT22;8011;51.650;7.240;2022-10-16T18:45:33;16.40;99.90
15821;DHT22;8011;51.650;7.240;2022-10-16T18:47:59;16.40;99.90
15821;DHT22;8011;51.650;7.240;2022-10-16T18:50:25;16.40;99.90
15821;DHT22;8011;51.650;7.240;2022-10-16T18:52:50;16.40;99.90
15821;DHT22;8011;51.650;7.240;2022-10-16T18:55:16;16.40;99.90
15821;DHT22;8011;51.650;7.240;2022-10-16T18:57:42;16.40;99.90
15821;DHT22;8011;51.650;7.240;2022-10-16T19:00:08;16.40;99.90
15821;DHT22;8011;51.650;7.240;2022-10-16T19:02:34;16.40;99.90
15821;DHT22;8011;51.650;7.240;2022-10-16T19:05:00;16.40;99.90
15821;DHT22;8011;51.650;7.240;2022-10-16T19:07:26;16.40;99.90
15821;DHT22;8011;51.650;7.240;2022-10-16T19:09:52;16.40;99.90
15821;DHT22;8011;51.650;7.240;2022-10-16T19:12:18;16.40;99.90
15821;DHT22;8011;51.650;7.240;2022-10-16T19:14:46;16.30;99.90
15821;DHT22;8011;51.650;7.240;2022-10-16T19:17:12;16.30;99.90
15821;DHT22;8011;51.650;7.240;2022-10-16T19:19:37;16.30;99.90
15821;DHT22;8011;51.650;7.240;2022-10-16T19:22:03;16.30;99.90
15821;DHT22;8011;51.650;7.240;2022-10-16T19:24:47;16.30;99.90
15821;DHT22;8011;51.650;7.240;2022-10-16T19:27:13;16.30;99.90
15821;DHT22;8011;51.650;7.240;2022-10-16T19:29:39;16.40;99.90
15821;DHT22;8011;51.650;7.240;2022-10-16T19:32:05;16.40;99.90
15821;DHT22;8011;51.650;7.240;2022-10-16T19:34:31;16.40;99.90
15821;DHT22;8011;51.650;7.240;2022-10-16T19:36:57;16.50;99.90
15821;DHT22;8011;51.650;7.240;2022-10-16T19:39:22;16.50;99.90
15821;DHT22;8011;51.650;7.240;2022-10-16T19:41:49;16.50;99.90
15821;DHT22;8011;51.650;7.240;2022-10-16T19:44:16;16.50;99.90
15821;DHT22;8011;51.650;7.240;2022-10-16T19:46:43;16.60;99.90
15821;DHT22;8011;51.650;7.240;2022-10-16T19:49:11;16.60;99.90
15821;DHT22;8011;51.650;7.240;2022-10-16T19:51:38;16.60;99.90
15821;DHT22;8011;51.650;7.240;2022-10-16T19:54:06;16.50;99.90
15821;DHT22;8011;51.650;7.240;2022-10-16T19:56:33;16.50;99.90
15821;DHT22;8011;51.650;7.240;2022-10-16T19:58:59;16.40;99.90
15821;DHT22;8011;51.650;7.240;2022-10-16T20:01:28;16.40;99.90
15821;DHT22;8011;51.650;7.240;2022-10-16T20:03:54;16.50;99.90
15821;DHT22;8011;51.650;7.240;2022-10-16T20:06:20;16.50;99.90
15821;DHT22;8011;51.650;7.240;2022-10-16T20:08:47;16.50;99.90
15821;DHT22;8011;51.650;7.240;2022-10-16T20:11:19;16.50;99.90
15821;DHT22;8011;51.650;7.240;2022-10-16T20:13:45;16.50;99.90
15821;DHT22;8011;51.650;7.240;2022-10-16T20:16:12;16.50;99.90
15821;DHT22;8011;51.650;7.240;2022-10-16T20:18:39;16.40;99.90
15821;DHT22;8011;51.650;7.240;2022-10-16T20:21:13;16.50;99.90
15821;DHT22;8011;51.650;7.240;2022-10-16T20:23:39;16.40;99.90
15821;DHT22;8011;51.650;7.240;2022-10-16T20:26:05;16.40;99.90
15821;DHT22;8011;51.650;7.240;2022-10-16T20:28:31;16.40;99.90
15821;DHT22;8011;51.650;7.240;2022-10-16T20:30:57;16.40;99.90
15821;DHT22;8011;51.650;7.240;2022-10-16T20:33:23;16.40;99.90
15821;DHT22;8011;51.650;7.240;2022-10-16T20:35:50;16.40;99.90
15821;DHT22;8011;51.650;7.240;2022-10-16T20:38:17;16.30;99.90
15821;DHT22;8011;51.650;7.240;2022-10-16T20:40:45;16.40;99.90
15821;DHT22;8011;51.650;7.240;2022-10-16T20:43:16;16.40;99.90
15821;DHT22;8011;51.650;7.240;2022-10-16T20:45:44;16.40;99.90
15821;DHT22;8011;51.650;7.240;2022-10-16T20:48:11;16.40;99.90
15821;DHT22;8011;51.650;7.240;2022-10-16T20:50:37;16.30;99.90
15821;DHT22;8011;51.650;7.240;2022-10-16T20:53:03;16.40;99.90
15821;DHT22;8011;51.650;7.240;2022-10-16T20:55:29;16.30;99.90